sensor_id;sensor_type;location;lat;lon;timestamp;P1;durP1;ratioP1;P2;durP2;ratioP2
21519;SDS011;10921;53.614;9.882;2023-12-14T00:00:00;17.35;;;15.27;;
21519;SDS011;10921;53.614;9.882;2023-12-14T00:02:26;17.02;;;15.27;;
21519;SDS011;10921;53.614;9.882;2023-12-14T00:04:53;17.85;;;15.88;;
21519;SDS011;10921;53.614;9.882;2023-12-14T00:07:20;16.25;;;14.85;;
21519;SDS011;10921;53.614;9.882;2023-12-14T00:09:46;15.57;;;14.30;;
21519;SDS011;10921;53.614;9.882;2023-12-14T00:12:13;20.80;;;15.00;;
21519;SDS011;10921;53.614;9.882;2023-12-14T00:14:40;16.23;;;14.70;;
21519;SDS011;10921;53.614;9.882;2023-12-14T00:17:06;17.52;;;15.15;;
21519;SDS011;10921;53.614;9.882;2023-12-14T00:19:33;20.42;;;14.45;;
21519;SDS011;10921;53.614;9.882;2023-12-14T00:22:00;15.68;;;14.25;;
21519;SDS011;10921;53.614;9.882;2023-12-14T00:24:27;17.63;;;14.05;;
21519;SDS011;10921;53.614;9.882;2023-12-14T00:26:54;19.10;;;14.80;;
21519;SDS011;10921;53.614;9.882;2023-12-14T00:29:20;20.45;;;14.07;;
21519;SDS011;10921;53.614;9.882;2023-12-14T00:31:47;16.38;;;14.45;;
21519;SDS011;10921;53.614;9.882;2023-12-14T00:34:14;17.00;;;15.18;;
21519;SDS011;10921;53.614;9.882;2023-12-14T00:36:40;15.77;;;13.85;;
21519;SDS011;10921;53.614;9.882;2023-12-14T00:39:07;17.13;;;14.15;;
21519;SDS011;10921;53.614;9.882;2023-12-14T00:41:33;22.35;;;13.65;;
21519;SDS011;10921;53.614;9.882;2023-12-14T00:44:00;17.60;;;13.52;;
21519;SDS011;10921;53.614;9.882;2023-12-14T00:46:27;15.13;;;13.63;;
21519;SDS011;10921;53.614;9.882;2023-12-14T00:48:54;14.63;;;13.35;;
21519;SDS011;10921;53.614;9.882;2023-12-14T00:51:21;14.23;;;13.13;;
21519;SDS011;10921;53.614;9.882;2023-12-14T00:53:47;15.50;;;12.75;;
21519;SDS011;10921;53.614;9.882;2023-12-14T00:56:14;14.20;;;12.85;;
21519;SDS011;10921;53.614;9.882;2023-12-14T00:58:42;17.17;;;13.18;;
21519;SDS011;10921;53.614;9.882;2023-12-14T01:01:09;13.93;;;12.52;;
21519;SDS011;10921;53.614;9.882;2023-12-14T01:03:36;14.90;;;13.55;;
21519;SDS011;10921;53.614;9.882;2023-12-14T01:06:02;14.15;;;12.88;;
21519;SDS011;10921;53.614;9.882;2023-12-14T01:08:29;16.98;;;13.75;;
21519;SDS011;10921;53.614;9.882;2023-12-14T01:10:56;15.05;;;13.57;;
21519;SDS011;10921;53.614;9.882;2023-12-14T01:13:23;15.77;;;13.65;;
21519;SDS011;10921;53.614;9.882;2023-12-14T01:15:49;14.23;;;12.95;;
21519;SDS011;10921;53.614;9.882;2023-12-14T01:18:16;14.55;;;13.15;;
21519;SDS011;10921;53.614;9.882;2023-12-14T01:20:43;15.35;;;13.40;;
21519;SDS011;10921;53.614;9.882;2023-12-14T01:23:10;15.15;;;13.55;;
21519;SDS011;10921;53.614;9.882;2023-12-14T01:25:36;15.02;;;13.73;;
21519;SDS011;10921;53.614;9.882;2023-12-14T01:28:03;14.57;;;13.30;;
21519;SDS011;10921;53.614;9.882;2023-12-14T01:30:29;14.57;;;13.18;;
21519;SDS011;10921;53.614;9.882;2023-12-14T01:32:56;15.35;;;12.88;;
21519;SDS011;10921;53.614;9.882;2023-12-14T01:35:22;14.77;;;13.50;;
21519;SDS011;10921;53.614;9.882;2023-12-14T01:37:49;17.98;;;12.95;;
21519;SDS011;10921;53.614;9.882;2023-12-14T01:40:16;14.45;;;12.95;;
21519;SDS011;10921;53.614;9.882;2023-12-14T01:42:45;14.35;;;13.02;;
21519;SDS011;10921;53.614;9.882;2023-12-14T01:45:12;14.55;;;13.10;;
21519;SDS011;10921;53.614;9.882;2023-12-14T01:47:44;14.30;;;12.85;;
21519;SDS011;10921;53.614;9.882;2023-12-14T01:50:11;15.43;;;12.32;;
21519;SDS011;10921;53.614;9.882;2023-12-14T01:52:38;14.73;;;12.75;;
21519;SDS011;10921;53.614;9.882;2023-12-14T01:55:05;15.48;;;12.82;;
21519;SDS011;10921;53.614;9.882;2023-12-14T01:57:31;14.10;;;12.55;;
21519;SDS011;10921;53.614;9.882;2023-12-14T01:59:58;14.35;;;12.52;;
21519;SDS011;10921;53.614;9.882;2023-12-14T02:02:24;13.18;;;12.00;;
21519;SDS011;10921;53.614;9.882;2023-12-14T02:04:51;16.50;;;12.93;;
21519;SDS011;10921;53.614;9.882;2023-12-14T02:07:18;13.57;;;12.43;;
21519;SDS011;10921;53.614;9.882;2023-12-14T02:09:45;18.10;;;13.30;;
21519;SDS011;10921;53.614;9.882;2023-12-14T02:12:11;14.88;;;13.05;;
21519;SDS011;10921;53.614;9.882;2023-12-14T02:14:38;15.02;;;13.60;;
21519;SDS011;10921;53.614;9.882;2023-12-14T02:17:04;15.32;;;13.02;;
21519;SDS011;10921;53.614;9.882;2023-12-14T02:19:31;14.30;;;12.90;;
21519;SDS011;10921;53.614;9.882;2023-12-14T02:21:58;14.52;;;12.68;;
21519;SDS011;10921;53.614;9.882;2023-12-14T02:24:25;19.23;;;13.07;;
21519;SDS011;10921;53.614;9.882;2023-12-14T02:26:51;15.38;;;12.60;;
21519;SDS011;10921;53.614;9.882;2023-12-14T02:29:29;14.25;;;12.73;;
21519;SDS011;10921;53.614;9.882;2023-12-14T02:31:55;14.38;;;12.50;;
21519;SDS011;10921;53.614;9.882;2023-12-14T02:34:22;13.65;;;12.23;;
21519;SDS011;10921;53.614;9.882;2023-12-14T02:36:51;14.30;;;12.83;;
21519;SDS011;10921;53.614;9.882;2023-12-14T02:39:18;15.30;;;13.10;;
21519;SDS011;10921;53.614;9.882;2023-12-14T02:41:44;16.85;;;13.05;;
21519;SDS011;10921;53.614;9.882;2023-12-14T02:44:11;13.68;;;12.43;;
21519;SDS011;10921;53.614;9.882;2023-12-14T02:46:38;17.13;;;12.80;;
21519;SDS011;10921;53.614;9.882;2023-12-14T02:49:04;13.98;;;12.40;;
21519;SDS011;10921;53.614;9.882;2023-12-14T02:51:31;20.48;;;12.68;;
21519;SDS011;10921;53.614;9.882;2023-12-14T02:53:57;16.05;;;12.50;;
21519;SDS011;10921;53.614;9.882;2023-12-14T02:56:24;14.45;;;12.50;;
21519;SDS011;10921;53.614;9.882;2023-12-14T02:58:50;14.80;;;13.07;;
21519;SDS011;10921;53.614;9.882;2023-12-14T03:01:20;14.18;;;12.88;;
21519;SDS011;10921;53.614;9.882;2023-12-14T03:03:47;14.00;;;12.40;;
21519;SDS011;10921;53.614;9.882;2023-12-14T03:06:14;15.98;;;13.55;;
21519;SDS011;10921;53.614;9.882;2023-12-14T03:08:40;15.10;;;12.95;;
21519;SDS011;10921;53.614;9.882;2023-12-14T03:11:07;15.98;;;12.50;;
21519;SDS011;10921;53.614;9.882;2023-12-14T03:13:34;17.55;;;13.15;;
21519;SDS011;10921;53.614;9.882;2023-12-14T03:16:00;19.73;;;12.02;;
21519;SDS011;10921;53.614;9.882;2023-12-14T03:18:27;14.02;;;12.77;;
21519;SDS011;10921;53.614;9.882;2023-12-14T03:20:53;14.35;;;12.98;;
21519;SDS011;10921;53.614;9.882;2023-12-14T03:23:20;13.95;;;12.75;;
21519;SDS011;10921;53.614;9.882;2023-12-14T03:25:46;13.68;;;12.45;;
21519;SDS011;10921;53.614;9.882;2023-12-14T03:28:13;14.20;;;12.75;;
21519;SDS011;10921;53.614;9.882;2023-12-14T03:30:40;14.88;;;11.90;;
21519;SDS011;10921;53.614;9.882;2023-12-14T03:33:06;14.95;;;12.50;;
21519;SDS011;10921;53.614;9.882;2023-12-14T03:35:34;13.43;;;12.13;;
21519;SDS011;10921;53.614;9.882;2023-12-14T03:38:02;16.35;;;12.90;;
21519;SDS011;10921;53.614;9.882;2023-12-14T03:40:28;14.52;;;12.85;;
21519;SDS011;10921;53.614;9.882;2023-12-14T03:42:55;17.25;;;12.68;;
21519;SDS011;10921;53.614;9.882;2023-12-14T03:45:22;14.15;;;12.75;;
21519;SDS011;10921;53.614;9.882;2023-12-14T03:47:48;14.23;;;12.75;;
21519;SDS011;10921;53.614;9.882;2023-12-14T03:50:15;15.95;;;12.45;;
21519;SDS011;10921;53.614;9.882;2023-12-14T03:52:41;13.93;;;12.45;;
21519;SDS011;10921;53.614;9.882;2023-12-14T03:55:08;16.27;;;12.60;;
21519;SDS011;10921;53.614;9.882;2023-12-14T03:57:35;14.40;;;12.82;;
21519;SDS011;10921;53.614;9.882;2023-12-14T04:00:01;14.50;;;12.52;;
21519;SDS011;10921;53.614;9.882;2023-12-14T04:02:28;14.05;;;12.38;;
21519;SDS011;10921;53.614;9.882;2023-12-14T04:04:55;18.55;;;13.23;;
21519;SDS011;10921;53.614;9.882;2023-12-14T04:07:22;15.05;;;13.45;;
21519;SDS011;10921;53.614;9.882;2023-12-14T04:09:49;17.88;;;13.23;;
21519;SDS011;10921;53.614;9.882;2023-12-14T04:12:15;15.43;;;13.60;;
21519;SDS011;10921;53.614;9.882;2023-12-14T04:14:42;15.50;;;13.30;;
21519;SDS011;10921;53.614;9.882;2023-12-14T04:17:08;14.50;;;12.80;;
21519;SDS011;10921;53.614;9.882;2023-12-14T04:19:35;16.13;;;13.25;;
21519;SDS011;10921;53.614;9.882;2023-12-14T04:22:03;14.27;;;12.82;;
21519;SDS011;10921;53.614;9.882;2023-12-14T04:24:30;14.98;;;13.52;;
21519;SDS011;10921;53.614;9.882;2023-12-14T04:26:57;15.63;;;13.98;;
21519;SDS011;10921;53.614;9.882;2023-12-14T04:29:24;15.20;;;13.23;;
21519;SDS011;10921;53.614;9.882;2023-12-14T04:31:51;17.63;;;13.70;;
21519;SDS011;10921;53.614;9.882;2023-12-14T04:34:19;17.65;;;13.80;;
21519;SDS011;10921;53.614;9.882;2023-12-14T04:36:45;15.13;;;13.38;;
21519;SDS011;10921;53.614;9.882;2023-12-14T04:39:12;16.85;;;13.60;;
21519;SDS011;10921;53.614;9.882;2023-12-14T04:41:38;15.70;;;14.20;;
21519;SDS011;10921;53.614;9.882;2023-12-14T04:44:05;19.02;;;14.80;;
21519;SDS011;10921;53.614;9.882;2023-12-14T04:46:32;16.90;;;14.10;;
21519;SDS011;10921;53.614;9.882;2023-12-14T04:48:58;16.60;;;14.10;;
21519;SDS011;10921;53.614;9.882;2023-12-14T04:51:25;16.00;;;14.45;;
21519;SDS011;10921;53.614;9.882;2023-12-14T04:53:52;16.30;;;14.63;;
21519;SDS011;10921;53.614;9.882;2023-12-14T04:56:18;17.15;;;14.43;;
21519;SDS011;10921;53.614;9.882;2023-12-14T04:58:45;16.42;;;14.38;;
21519;SDS011;10921;53.614;9.882;2023-12-14T05:01:12;17.63;;;14.65;;
21519;SDS011;10921;53.614;9.882;2023-12-14T05:03:39;17.85;;;14.82;;
21519;SDS011;10921;53.614;9.882;2023-12-14T05:06:06;16.60;;;14.90;;
21519;SDS011;10921;53.614;9.882;2023-12-14T05:08:33;17.67;;;15.35;;
21519;SDS011;10921;53.614;9.882;2023-12-14T05:11:00;18.45;;;14.77;;
21519;SDS011;10921;53.614;9.882;2023-12-14T05:13:26;21.65;;;15.43;;
21519;SDS011;10921;53.614;9.882;2023-12-14T05:15:53;16.55;;;14.80;;
21519;SDS011;10921;53.614;9.882;2023-12-14T05:18:19;16.70;;;14.98;;
21519;SDS011;10921;53.614;9.882;2023-12-14T05:20:46;19.90;;;16.25;;
21519;SDS011;10921;53.614;9.882;2023-12-14T05:23:13;22.75;;;16.33;;
21519;SDS011;10921;53.614;9.882;2023-12-14T05:25:39;18.23;;;16.00;;
21519;SDS011;10921;53.614;9.882;2023-12-14T05:28:06;21.73;;;16.65;;
21519;SDS011;10921;53.614;9.882;2023-12-14T05:30:32;18.77;;;16.35;;
21519;SDS011;10921;53.614;9.882;2023-12-14T05:32:59;17.83;;;14.90;;
21519;SDS011;10921;53.614;9.882;2023-12-14T05:35:26;18.73;;;15.70;;
21519;SDS011;10921;53.614;9.882;2023-12-14T05:37:52;18.25;;;15.77;;
21519;SDS011;10921;53.614;9.882;2023-12-14T05:40:19;20.60;;;16.30;;
21519;SDS011;10921;53.614;9.882;2023-12-14T05:42:45;22.25;;;17.08;;
21519;SDS011;10921;53.614;9.882;2023-12-14T05:45:12;20.52;;;16.70;;
21519;SDS011;10921;53.614;9.882;2023-12-14T05:47:39;20.70;;;16.85;;
21519;SDS011;10921;53.614;9.882;2023-12-14T05:50:08;18.13;;;16.13;;
21519;SDS011;10921;53.614;9.882;2023-12-14T05:52:36;21.75;;;16.65;;
21519;SDS011;10921;53.614;9.882;2023-12-14T05:55:04;18.95;;;16.15;;
21519;SDS011;10921;53.614;9.882;2023-12-14T05:57:30;20.25;;;16.08;;
21519;SDS011;10921;53.614;9.882;2023-12-14T05:59:57;20.63;;;16.73;;
21519;SDS011;10921;53.614;9.882;2023-12-14T06:02:24;18.33;;;16.23;;
21519;SDS011;10921;53.614;9.882;2023-12-14T06:04:50;23.27;;;17.17;;
21519;SDS011;10921;53.614;9.882;2023-12-14T06:07:17;20.15;;;16.63;;
21519;SDS011;10921;53.614;9.882;2023-12-14T06:09:44;24.55;;;17.05;;
21519;SDS011;10921;53.614;9.882;2023-12-14T06:12:10;23.42;;;17.50;;
21519;SDS011;10921;53.614;9.882;2023-12-14T06:14:37;21.95;;;16.77;;
21519;SDS011;10921;53.614;9.882;2023-12-14T06:17:03;18.75;;;16.55;;
21519;SDS011;10921;53.614;9.882;2023-12-14T06:19:30;22.15;;;17.08;;
21519;SDS011;10921;53.614;9.882;2023-12-14T06:21:56;20.98;;;16.98;;
21519;SDS011;10921;53.614;9.882;2023-12-14T06:24:23;23.13;;;17.00;;
21519;SDS011;10921;53.614;9.882;2023-12-14T06:26:49;22.83;;;17.02;;
21519;SDS011;10921;53.614;9.882;2023-12-14T06:29:16;17.83;;;15.90;;
21519;SDS011;10921;53.614;9.882;2023-12-14T06:31:44;20.50;;;16.52;;
21519;SDS011;10921;53.614;9.882;2023-12-14T06:34:11;19.58;;;16.23;;
21519;SDS011;10921;53.614;9.882;2023-12-14T06:36:41;19.52;;;16.58;;
21519;SDS011;10921;53.614;9.882;2023-12-14T06:39:11;23.95;;;17.75;;
21519;SDS011;10921;53.614;9.882;2023-12-14T06:41:38;21.30;;;17.33;;
21519;SDS011;10921;53.614;9.882;2023-12-14T06:44:05;21.75;;;17.00;;
21519;SDS011;10921;53.614;9.882;2023-12-14T06:46:31;19.90;;;16.65;;
21519;SDS011;10921;53.614;9.882;2023-12-14T06:48:58;23.02;;;16.50;;
21519;SDS011;10921;53.614;9.882;2023-12-14T06:51:25;25.70;;;17.42;;
21519;SDS011;10921;53.614;9.882;2023-12-14T06:53:51;25.40;;;17.75;;
21519;SDS011;10921;53.614;9.882;2023-12-14T06:56:18;19.48;;;17.48;;
21519;SDS011;10921;53.614;9.882;2023-12-14T06:58:45;22.40;;;17.70;;
21519;SDS011;10921;53.614;9.882;2023-12-14T07:01:12;24.17;;;18.13;;
21519;SDS011;10921;53.614;9.882;2023-12-14T07:03:40;24.42;;;19.73;;
21519;SDS011;10921;53.614;9.882;2023-12-14T07:06:11;23.80;;;18.27;;
21519;SDS011;10921;53.614;9.882;2023-12-14T07:08:41;20.25;;;17.77;;
21519;SDS011;10921;53.614;9.882;2023-12-14T07:11:08;20.13;;;18.02;;
21519;SDS011;10921;53.614;9.882;2023-12-14T07:13:35;23.95;;;18.58;;
21519;SDS011;10921;53.614;9.882;2023-12-14T07:16:09;21.50;;;18.48;;
21519;SDS011;10921;53.614;9.882;2023-12-14T07:18:36;21.02;;;18.83;;
21519;SDS011;10921;53.614;9.882;2023-12-14T07:21:04;20.92;;;18.40;;
21519;SDS011;10921;53.614;9.882;2023-12-14T07:23:31;24.73;;;19.90;;
21519;SDS011;10921;53.614;9.882;2023-12-14T07:25:58;20.73;;;16.38;;
21519;SDS011;10921;53.614;9.882;2023-12-14T07:28:29;17.25;;;14.75;;
21519;SDS011;10921;53.614;9.882;2023-12-14T07:30:55;19.83;;;15.63;;
21519;SDS011;10921;53.614;9.882;2023-12-14T07:33:22;25.45;;;18.63;;
21519;SDS011;10921;53.614;9.882;2023-12-14T07:35:50;28.33;;;18.05;;
21519;SDS011;10921;53.614;9.882;2023-12-14T07:38:17;29.48;;;17.35;;
21519;SDS011;10921;53.614;9.882;2023-12-14T07:40:44;24.27;;;17.40;;
21519;SDS011;10921;53.614;9.882;2023-12-14T07:43:11;24.20;;;16.48;;
21519;SDS011;10921;53.614;9.882;2023-12-14T07:45:38;25.35;;;17.48;;
21519;SDS011;10921;53.614;9.882;2023-12-14T07:48:04;23.23;;;16.13;;
21519;SDS011;10921;53.614;9.882;2023-12-14T07:50:31;26.15;;;17.23;;
21519;SDS011;10921;53.614;9.882;2023-12-14T07:52:57;22.63;;;18.63;;
21519;SDS011;10921;53.614;9.882;2023-12-14T07:55:24;21.80;;;16.08;;
21519;SDS011;10921;53.614;9.882;2023-12-14T07:57:50;21.38;;;16.02;;
21519;SDS011;10921;53.614;9.882;2023-12-14T08:00:17;24.90;;;16.70;;
21519;SDS011;10921;53.614;9.882;2023-12-14T08:02:44;21.23;;;17.08;;
21519;SDS011;10921;53.614;9.882;2023-12-14T08:05:11;23.60;;;17.15;;
21519;SDS011;10921;53.614;9.882;2023-12-14T08:07:38;21.85;;;16.23;;
21519;SDS011;10921;53.614;9.882;2023-12-14T08:10:05;22.25;;;17.00;;
21519;SDS011;10921;53.614;9.882;2023-12-14T08:12:32;21.88;;;16.70;;
21519;SDS011;10921;53.614;9.882;2023-12-14T08:14:59;26.67;;;17.58;;
21519;SDS011;10921;53.614;9.882;2023-12-14T08:17:26;24.98;;;17.13;;
21519;SDS011;10921;53.614;9.882;2023-12-14T08:19:54;23.52;;;17.17;;
21519;SDS011;10921;53.614;9.882;2023-12-14T08:22:21;23.08;;;16.08;;
21519;SDS011;10921;53.614;9.882;2023-12-14T08:24:48;22.60;;;16.77;;
21519;SDS011;10921;53.614;9.882;2023-12-14T08:27:15;20.50;;;16.42;;
21519;SDS011;10921;53.614;9.882;2023-12-14T08:29:41;21.67;;;15.38;;
21519;SDS011;10921;53.614;9.882;2023-12-14T08:32:08;19.27;;;15.77;;
21519;SDS011;10921;53.614;9.882;2023-12-14T08:34:34;23.05;;;16.33;;
21519;SDS011;10921;53.614;9.882;2023-12-14T08:37:01;16.55;;;14.75;;
21519;SDS011;10921;53.614;9.882;2023-12-14T08:39:29;24.00;;;16.70;;
21519;SDS011;10921;53.614;9.882;2023-12-14T08:41:55;19.95;;;15.60;;
21519;SDS011;10921;53.614;9.882;2023-12-14T08:44:22;20.50;;;15.30;;
21519;SDS011;10921;53.614;9.882;2023-12-14T08:46:48;18.05;;;15.43;;
21519;SDS011;10921;53.614;9.882;2023-12-14T08:49:15;24.33;;;16.30;;
21519;SDS011;10921;53.614;9.882;2023-12-14T08:51:42;18.00;;;15.45;;
21519;SDS011;10921;53.614;9.882;2023-12-14T08:54:09;21.48;;;15.23;;
21519;SDS011;10921;53.614;9.882;2023-12-14T08:56:35;22.35;;;16.42;;
21519;SDS011;10921;53.614;9.882;2023-12-14T08:59:02;21.48;;;15.02;;
21519;SDS011;10921;53.614;9.882;2023-12-14T09:01:30;23.65;;;16.40;;
21519;SDS011;10921;53.614;9.882;2023-12-14T09:03:57;26.35;;;15.23;;
21519;SDS011;10921;53.614;9.882;2023-12-14T09:06:24;21.80;;;16.42;;
21519;SDS011;10921;53.614;9.882;2023-12-14T09:08:50;24.27;;;16.17;;
21519;SDS011;10921;53.614;9.882;2023-12-14T09:11:17;19.63;;;15.45;;
21519;SDS011;10921;53.614;9.882;2023-12-14T09:13:44;24.25;;;17.23;;
21519;SDS011;10921;53.614;9.882;2023-12-14T09:16:11;21.83;;;17.27;;
21519;SDS011;10921;53.614;9.882;2023-12-14T09:18:38;26.65;;;16.75;;
21519;SDS011;10921;53.614;9.882;2023-12-14T09:21:05;19.45;;;15.85;;
21519;SDS011;10921;53.614;9.882;2023-12-14T09:23:31;17.13;;;14.73;;
21519;SDS011;10921;53.614;9.882;2023-12-14T09:25:58;21.33;;;16.35;;
21519;SDS011;10921;53.614;9.882;2023-12-14T09:28:25;17.75;;;15.68;;
21519;SDS011;10921;53.614;9.882;2023-12-14T09:30:52;18.88;;;15.20;;
21519;SDS011;10921;53.614;9.882;2023-12-14T09:33:19;16.75;;;14.50;;
21519;SDS011;10921;53.614;9.882;2023-12-14T09:35:46;20.80;;;14.48;;
21519;SDS011;10921;53.614;9.882;2023-12-14T09:38:13;26.25;;;15.45;;
21519;SDS011;10921;53.614;9.882;2023-12-14T09:40:43;17.83;;;14.95;;
21519;SDS011;10921;53.614;9.882;2023-12-14T09:43:10;19.55;;;15.50;;
21519;SDS011;10921;53.614;9.882;2023-12-14T09:45:40;18.55;;;15.40;;
21519;SDS011;10921;53.614;9.882;2023-12-14T09:48:11;19.05;;;15.50;;
21519;SDS011;10921;53.614;9.882;2023-12-14T09:50:39;17.90;;;14.88;;
21519;SDS011;10921;53.614;9.882;2023-12-14T09:53:06;19.83;;;15.75;;
21519;SDS011;10921;53.614;9.882;2023-12-14T09:55:34;19.20;;;16.05;;
21519;SDS011;10921;53.614;9.882;2023-12-14T09:58:01;20.90;;;15.63;;
21519;SDS011;10921;53.614;9.882;2023-12-14T10:00:34;19.85;;;15.77;;
21519;SDS011;10921;53.614;9.882;2023-12-14T10:05:59;20.10;;;16.50;;
21519;SDS011;10921;53.614;9.882;2023-12-14T10:08:28;18.40;;;16.20;;
21519;SDS011;10921;53.614;9.882;2023-12-14T10:10:58;17.85;;;15.95;;
21519;SDS011;10921;53.614;9.882;2023-12-14T10:13:37;20.17;;;15.23;;
21519;SDS011;10921;53.614;9.882;2023-12-14T10:16:05;17.85;;;16.10;;
21519;SDS011;10921;53.614;9.882;2023-12-14T10:18:32;19.30;;;15.13;;
21519;SDS011;10921;53.614;9.882;2023-12-14T10:21:05;18.60;;;15.43;;
21519;SDS011;10921;53.614;9.882;2023-12-14T10:23:34;16.27;;;14.55;;
21519;SDS011;10921;53.614;9.882;2023-12-14T10:26:01;19.40;;;15.18;;
21519;SDS011;10921;53.614;9.882;2023-12-14T10:28:30;19.63;;;15.25;;
21519;SDS011;10921;53.614;9.882;2023-12-14T10:30:57;16.58;;;14.88;;
21519;SDS011;10921;53.614;9.882;2023-12-14T10:33:23;18.58;;;15.48;;
21519;SDS011;10921;53.614;9.882;2023-12-14T10:35:50;16.10;;;14.40;;
21519;SDS011;10921;53.614;9.882;2023-12-14T10:38:18;18.67;;;15.60;;
21519;SDS011;10921;53.614;9.882;2023-12-14T10:40:47;17.48;;;14.40;;
21519;SDS011;10921;53.614;9.882;2023-12-14T10:43:14;18.23;;;15.10;;
21519;SDS011;10921;53.614;9.882;2023-12-14T10:46:05;16.77;;;15.13;;
21519;SDS011;10921;53.614;9.882;2023-12-14T10:48:34;17.50;;;15.57;;
21519;SDS011;10921;53.614;9.882;2023-12-14T10:51:03;19.17;;;15.48;;
21519;SDS011;10921;53.614;9.882;2023-12-14T10:53:32;16.05;;;14.40;;
21519;SDS011;10921;53.614;9.882;2023-12-14T10:55:59;18.90;;;15.55;;
21519;SDS011;10921;53.614;9.882;2023-12-14T10:59:06;15.95;;;14.00;;
21519;SDS011;10921;53.614;9.882;2023-12-14T11:01:26;21.45;;;15.23;;
21519;SDS011;10921;53.614;9.882;2023-12-14T11:03:54;20.48;;;15.30;;
21519;SDS011;10921;53.614;9.882;2023-12-14T11:09:03;16.88;;;14.98;;
21519;SDS011;10921;53.614;9.882;2023-12-14T11:12:19;17.50;;;14.85;;
21519;SDS011;10921;53.614;9.882;2023-12-14T11:14:26;16.05;;;14.40;;
21519;SDS011;10921;53.614;9.882;2023-12-14T11:16:54;18.65;;;14.95;;
21519;SDS011;10921;53.614;9.882;2023-12-14T11:24:34;17.52;;;15.73;;
21519;SDS011;10921;53.614;9.882;2023-12-14T11:27:04;20.23;;;15.98;;
21519;SDS011;10921;53.614;9.882;2023-12-14T11:29:32;19.40;;;15.50;;
21519;SDS011;10921;53.614;9.882;2023-12-14T11:31:59;18.33;;;15.68;;
21519;SDS011;10921;53.614;9.882;2023-12-14T11:34:26;17.60;;;15.45;;
21519;SDS011;10921;53.614;9.882;2023-12-14T11:36:55;16.77;;;15.07;;
21519;SDS011;10921;53.614;9.882;2023-12-14T11:39:22;18.73;;;15.45;;
21519;SDS011;10921;53.614;9.882;2023-12-14T11:42:01;24.83;;;16.55;;
21519;SDS011;10921;53.614;9.882;2023-12-14T11:44:30;18.63;;;15.30;;
21519;SDS011;10921;53.614;9.882;2023-12-14T11:46:57;17.80;;;15.25;;
21519;SDS011;10921;53.614;9.882;2023-12-14T11:49:24;17.40;;;15.60;;
21519;SDS011;10921;53.614;9.882;2023-12-14T11:51:54;18.00;;;15.45;;
21519;SDS011;10921;53.614;9.882;2023-12-14T11:54:21;21.95;;;16.60;;
21519;SDS011;10921;53.614;9.882;2023-12-14T11:56:48;19.75;;;15.88;;
21519;SDS011;10921;53.614;9.882;2023-12-14T11:59:16;21.80;;;15.70;;
21519;SDS011;10921;53.614;9.882;2023-12-14T12:01:59;18.50;;;15.57;;
21519;SDS011;10921;53.614;9.882;2023-12-14T12:04:27;17.77;;;15.88;;
21519;SDS011;10921;53.614;9.882;2023-12-14T12:07:01;20.20;;;17.13;;
21519;SDS011;10921;53.614;9.882;2023-12-14T12:09:41;21.25;;;16.23;;
21519;SDS011;10921;53.614;9.882;2023-12-14T12:12:09;19.95;;;15.73;;
21519;SDS011;10921;53.614;9.882;2023-12-14T12:14:39;17.98;;;16.08;;
21519;SDS011;10921;53.614;9.882;2023-12-14T12:17:06;21.40;;;16.42;;
21519;SDS011;10921;53.614;9.882;2023-12-14T12:19:34;17.92;;;15.63;;
21519;SDS011;10921;53.614;9.882;2023-12-14T12:22:04;23.42;;;17.10;;
21519;SDS011;10921;53.614;9.882;2023-12-14T12:24:32;22.38;;;16.77;;
21519;SDS011;10921;53.614;9.882;2023-12-14T12:27:01;30.23;;;19.13;;
21519;SDS011;10921;53.614;9.882;2023-12-14T12:29:28;26.73;;;18.70;;
21519;SDS011;10921;53.614;9.882;2023-12-14T12:31:56;19.65;;;17.13;;
21519;SDS011;10921;53.614;9.882;2023-12-14T12:34:23;20.10;;;15.95;;
21519;SDS011;10921;53.614;9.882;2023-12-14T12:36:51;24.88;;;17.13;;
21519;SDS011;10921;53.614;9.882;2023-12-14T12:39:18;25.23;;;17.83;;
21519;SDS011;10921;53.614;9.882;2023-12-14T12:41:44;23.88;;;18.02;;
21519;SDS011;10921;53.614;9.882;2023-12-14T12:44:12;22.90;;;17.77;;
21519;SDS011;10921;53.614;9.882;2023-12-14T12:46:38;22.50;;;16.67;;
21519;SDS011;10921;53.614;9.882;2023-12-14T12:49:06;22.67;;;16.65;;
21519;SDS011;10921;53.614;9.882;2023-12-14T12:51:36;23.40;;;17.35;;
21519;SDS011;10921;53.614;9.882;2023-12-14T12:54:04;29.13;;;17.58;;
21519;SDS011;10921;53.614;9.882;2023-12-14T12:56:38;19.48;;;16.65;;
21519;SDS011;10921;53.614;9.882;2023-12-14T12:59:08;23.77;;;17.98;;
21519;SDS011;10921;53.614;9.882;2023-12-14T13:01:36;23.30;;;17.45;;
21519;SDS011;10921;53.614;9.882;2023-12-14T13:04:03;24.00;;;16.67;;
21519;SDS011;10921;53.614;9.882;2023-12-14T13:06:31;21.50;;;17.40;;
21519;SDS011;10921;53.614;9.882;2023-12-14T13:08:58;20.02;;;16.75;;
21519;SDS011;10921;53.614;9.882;2023-12-14T13:11:24;23.90;;;16.92;;
21519;SDS011;10921;53.614;9.882;2023-12-14T13:13:52;25.88;;;17.98;;
21519;SDS011;10921;53.614;9.882;2023-12-14T13:16:18;24.95;;;17.50;;
21519;SDS011;10921;53.614;9.882;2023-12-14T13:18:45;22.08;;;16.75;;
21519;SDS011;10921;53.614;9.882;2023-12-14T13:21:12;20.85;;;16.70;;
21519;SDS011;10921;53.614;9.882;2023-12-14T13:23:39;21.77;;;16.33;;
21519;SDS011;10921;53.614;9.882;2023-12-14T13:26:06;25.00;;;16.73;;
21519;SDS011;10921;53.614;9.882;2023-12-14T13:28:34;27.35;;;17.15;;
21519;SDS011;10921;53.614;9.882;2023-12-14T13:31:01;19.52;;;16.73;;
21519;SDS011;10921;53.614;9.882;2023-12-14T13:33:27;24.30;;;18.00;;
21519;SDS011;10921;53.614;9.882;2023-12-14T13:35:54;29.58;;;18.60;;
21519;SDS011;10921;53.614;9.882;2023-12-14T13:38:21;23.73;;;17.50;;
21519;SDS011;10921;53.614;9.882;2023-12-14T13:40:49;22.58;;;17.00;;
21519;SDS011;10921;53.614;9.882;2023-12-14T13:43:16;24.00;;;18.02;;
21519;SDS011;10921;53.614;9.882;2023-12-14T13:45:43;21.00;;;17.48;;
21519;SDS011;10921;53.614;9.882;2023-12-14T13:48:10;19.58;;;16.33;;
21519;SDS011;10921;53.614;9.882;2023-12-14T13:50:37;26.65;;;17.15;;
21519;SDS011;10921;53.614;9.882;2023-12-14T13:53:04;23.88;;;17.88;;
21519;SDS011;10921;53.614;9.882;2023-12-14T13:55:31;23.40;;;17.05;;
21519;SDS011;10921;53.614;9.882;2023-12-14T13:57:58;21.17;;;16.55;;
21519;SDS011;10921;53.614;9.882;2023-12-14T14:00:29;22.73;;;17.05;;
21519;SDS011;10921;53.614;9.882;2023-12-14T14:02:56;19.80;;;16.77;;
21519;SDS011;10921;53.614;9.882;2023-12-14T14:05:26;20.30;;;16.73;;
21519;SDS011;10921;53.614;9.882;2023-12-14T14:07:53;22.27;;;17.85;;
21519;SDS011;10921;53.614;9.882;2023-12-14T14:10:20;21.92;;;16.95;;
21519;SDS011;10921;53.614;9.882;2023-12-14T14:12:47;17.92;;;16.02;;
21519;SDS011;10921;53.614;9.882;2023-12-14T14:15:14;23.75;;;17.38;;
21519;SDS011;10921;53.614;9.882;2023-12-14T14:17:41;21.13;;;17.17;;
21519;SDS011;10921;53.614;9.882;2023-12-14T14:20:08;22.55;;;16.23;;
21519;SDS011;10921;53.614;9.882;2023-12-14T14:22:36;17.98;;;16.10;;
21519;SDS011;10921;53.614;9.882;2023-12-14T14:25:05;19.90;;;16.15;;
21519;SDS011;10921;53.614;9.882;2023-12-14T14:27:35;20.42;;;16.15;;
21519;SDS011;10921;53.614;9.882;2023-12-14T14:30:03;25.77;;;17.08;;
21519;SDS011;10921;53.614;9.882;2023-12-14T14:32:30;23.90;;;17.33;;